sensor_id;sensor_type;location;lat;lon;timestamp;temperature;humidity
31677;DHT22;18385;51.572;6.578;2024-01-06T00:01:37;11.00;71.60
31677;DHT22;18385;51.572;6.578;2024-01-06T00:04:03;11.00;71.60
31677;DHT22;18385;51.572;6.578;2024-01-06T00:06:29;11.00;71.50
31677;DHT22;18385;51.572;6.578;2024-01-06T00:08:54;11.00;71.60
31677;DHT22;18385;51.572;6.578;2024-01-06T00:11:23;10.90;71.50
31677;DHT22;18385;51.572;6.578;2024-01-06T00:13:49;10.90;71.60
31677;DHT22;18385;51.572;6.578;2024-01-06T00:16:18;10.90;71.60
31677;DHT22;18385;51.572;6.578;2024-01-06T00:18:45;10.90;71.70
31677;DHT22;18385;51.572;6.578;2024-01-06T00:21:11;10.90;71.70
31677;DHT22;18385;51.572;6.578;2024-01-06T00:23:37;10.80;71.70
31677;DHT22;18385;51.572;6.578;2024-01-06T00:26:03;10.90;71.80
31677;DHT22;18385;51.572;6.578;2024-01-06T00:28:29;10.80;71.70
31677;DHT22;18385;51.572;6.578;2024-01-06T00:30:55;10.80;71.70
31677;DHT22;18385;51.572;6.578;2024-01-06T00:33:20;10.80;71.70
31677;DHT22;18385;51.572;6.578;2024-01-06T00:35:46;10.80;71.80
31677;DHT22;18385;51.572;6.578;2024-01-06T00:38:12;10.80;71.70
31677;DHT22;18385;51.572;6.578;2024-01-06T00:40:37;10.80;71.80
31677;DHT22;18385;51.572;6.578;2024-01-06T00:43:04;10.90;71.80
31677;DHT22;18385;51.572;6.578;2024-01-06T00:45:29;10.90;71.70
31677;DHT22;18385;51.572;6.578;2024-01-06T00:47:56;10.90;71.80
31677;DHT22;18385;51.572;6.578;2024-01-06T00:50:22;11.00;71.70
31677;DHT22;18385;51.572;6.578;2024-01-06T00:52:48;10.90;71.60
31677;DHT22;18385;51.572;6.578;2024-01-06T00:55:13;10.90;71.50
31677;DHT22;18385;51.572;6.578;2024-01-06T00:57:39;10.90;71.60
31677;DHT22;18385;51.572;6.578;2024-01-06T01:00:05;10.90;71.70
31677;DHT22;18385;51.572;6.578;2024-01-06T01:02:31;10.80;71.70
31677;DHT22;18385;51.572;6.578;2024-01-06T01:04:57;10.90;71.90
31677;DHT22;18385;51.572;6.578;2024-01-06T01:07:24;10.90;71.90
31677;DHT22;18385;51.572;6.578;2024-01-06T01:09:50;10.90;71.80
31677;DHT22;18385;51.572;6.578;2024-01-06T01:12:15;10.90;71.90
31677;DHT22;18385;51.572;6.578;2024-01-06T01:14:41;10.90;71.90
31677;DHT22;18385;51.572;6.578;2024-01-06T01:17:07;10.90;71.80
31677;DHT22;18385;51.572;6.578;2024-01-06T01:19:32;10.90;71.80
31677;DHT22;18385;51.572;6.578;2024-01-06T01:21:58;10.90;72.00
31677;DHT22;18385;51.572;6.578;2024-01-06T01:24:23;10.90;71.80
31677;DHT22;18385;51.572;6.578;2024-01-06T01:26:50;10.90;71.70
31677;DHT22;18385;51.572;6.578;2024-01-06T01:29:16;10.80;71.80
31677;DHT22;18385;51.572;6.578;2024-01-06T01:31:42;10.80;72.10
31677;DHT22;18385;51.572;6.578;2024-01-06T01:34:08;10.80;72.10
31677;DHT22;18385;51.572;6.578;2024-01-06T01:36:34;10.80;72.10
31677;DHT22;18385;51.572;6.578;2024-01-06T01:38:59;10.90;72.00
31677;DHT22;18385;51.572;6.578;2024-01-06T01:41:25;10.80;71.90
31677;DHT22;18385;51.572;6.578;2024-01-06T01:43:52;10.80;72.00
31677;DHT22;18385;51.572;6.578;2024-01-06T01:46:27;10.80;72.10
31677;DHT22;18385;51.572;6.578;2024-01-06T01:48:57;10.90;72.20
31677;DHT22;18385;51.572;6.578;2024-01-06T01:51:26;10.90;72.20
31677;DHT22;18385;51.572;6.578;2024-01-06T01:53:52;10.90;72.00
31677;DHT22;18385;51.572;6.578;2024-01-06T01:56:19;10.90;72.00
31677;DHT22;18385;51.572;6.578;2024-01-06T01:58:45;10.90;71.90
31677;DHT22;18385;51.572;6.578;2024-01-06T02:01:11;10.80;71.80
31677;DHT22;18385;51.572;6.578;2024-01-06T02:03:37;10.70;72.00
31677;DHT22;18385;51.572;6.578;2024-01-06T02:06:03;10.70;72.10
31677;DHT22;18385;51.572;6.578;2024-01-06T02:08:29;10.70;72.10
31677;DHT22;18385;51.572;6.578;2024-01-06T02:10:55;10.60;72.10
31677;DHT22;18385;51.572;6.578;2024-01-06T02:13:22;10.60;72.10
31677;DHT22;18385;51.572;6.578;2024-01-06T02:15:48;10.60;72.10
31677;DHT22;18385;51.572;6.578;2024-01-06T02:18:13;10.60;72.10
31677;DHT22;18385;51.572;6.578;2024-01-06T02:20:43;10.60;72.10
31677;DHT22;18385;51.572;6.578;2024-01-06T02:23:09;10.60;72.10
31677;DHT22;18385;51.572;6.578;2024-01-06T02:25:34;10.50;72.10
31677;DHT22;18385;51.572;6.578;2024-01-06T02:28:00;10.50;72.20
31677;DHT22;18385;51.572;6.578;2024-01-06T02:30:26;10.50;72.10
31677;DHT22;18385;51.572;6.578;2024-01-06T02:32:52;10.40;72.20
31677;DHT22;18385;51.572;6.578;2024-01-06T02:35:17;10.50;72.20
31677;DHT22;18385;51.572;6.578;2024-01-06T02:37:43;10.50;72.10
31677;DHT22;18385;51.572;6.578;2024-01-06T02:40:09;10.40;72.10
31677;DHT22;18385;51.572;6.578;2024-01-06T02:42:35;10.40;72.00
31677;DHT22;18385;51.572;6.578;2024-01-06T02:45:01;10.30;72.00
31677;DHT22;18385;51.572;6.578;2024-01-06T02:47:26;10.30;72.00
31677;DHT22;18385;51.572;6.578;2024-01-06T02:49:52;10.30;72.00
31677;DHT22;18385;51.572;6.578;2024-01-06T02:52:17;10.20;72.10
31677;DHT22;18385;51.572;6.578;2024-01-06T02:54:43;10.20;72.10
31677;DHT22;18385;51.572;6.578;2024-01-06T02:57:09;10.20;72.20
31677;DHT22;18385;51.572;6.578;2024-01-06T02:59:34;10.10;72.10
31677;DHT22;18385;51.572;6.578;2024-01-06T03:02:01;10.10;72.10
31677;DHT22;18385;51.572;6.578;2024-01-06T03:04:27;10.20;72.20
31677;DHT22;18385;51.572;6.578;2024-01-06T03:06:52;10.10;72.00
31677;DHT22;18385;51.572;6.578;2024-01-06T03:09:19;10.10;72.00
31677;DHT22;18385;51.572;6.578;2024-01-06T03:11:45;10.10;72.00
31677;DHT22;18385;51.572;6.578;2024-01-06T03:14:11;10.00;72.00
31677;DHT22;18385;51.572;6.578;2024-01-06T03:16:36;10.00;71.90
31677;DHT22;18385;51.572;6.578;2024-01-06T03:19:03;9.90;71.90
31677;DHT22;18385;51.572;6.578;2024-01-06T03:21:28;9.90;72.00
31677;DHT22;18385;51.572;6.578;2024-01-06T03:23:54;9.90;72.10
31677;DHT22;18385;51.572;6.578;2024-01-06T03:26:21;10.00;72.30
31677;DHT22;18385;51.572;6.578;2024-01-06T03:28:49;10.00;72.90
31677;DHT22;18385;51.572;6.578;2024-01-06T03:31:15;10.00;72.00
31677;DHT22;18385;51.572;6.578;2024-01-06T03:33:40;9.90;71.90
31677;DHT22;18385;51.572;6.578;2024-01-06T03:36:07;10.00;72.00
31677;DHT22;18385;51.572;6.578;2024-01-06T03:38:33;10.00;71.90
31677;DHT22;18385;51.572;6.578;2024-01-06T03:40:59;9.90;71.80
31677;DHT22;18385;51.572;6.578;2024-01-06T03:43:24;9.90;71.80
31677;DHT22;18385;51.572;6.578;2024-01-06T03:45:50;9.90;71.80
31677;DHT22;18385;51.572;6.578;2024-01-06T03:48:16;9.90;71.80
31677;DHT22;18385;51.572;6.578;2024-01-06T03:50:42;9.90;71.70
31677;DHT22;18385;51.572;6.578;2024-01-06T03:53:07;9.80;71.70
31677;DHT22;18385;51.572;6.578;2024-01-06T03:55:33;9.80;71.80
31677;DHT22;18385;51.572;6.578;2024-01-06T03:57:59;9.80;71.90
31677;DHT22;18385;51.572;6.578;2024-01-06T04:00:25;9.80;71.80
31677;DHT22;18385;51.572;6.578;2024-01-06T04:02:51;9.80;71.90
31677;DHT22;18385;51.572;6.578;2024-01-06T04:05:17;9.80;71.90
31677;DHT22;18385;51.572;6.578;2024-01-06T04:07:42;9.80;71.80
31677;DHT22;18385;51.572;6.578;2024-01-06T04:10:08;9.80;72.00
31677;DHT22;18385;51.572;6.578;2024-01-06T04:12:34;9.80;71.90
31677;DHT22;18385;51.572;6.578;2024-01-06T04:14:59;9.80;71.80
31677;DHT22;18385;51.572;6.578;2024-01-06T04:17:25;9.80;71.80
31677;DHT22;18385;51.572;6.578;2024-01-06T04:19:52;9.80;71.70
31677;DHT22;18385;51.572;6.578;2024-01-06T04:22:18;9.80;71.70
31677;DHT22;18385;51.572;6.578;2024-01-06T04:24:43;9.80;71.80
31677;DHT22;18385;51.572;6.578;2024-01-06T04:27:09;9.80;71.70
31677;DHT22;18385;51.572;6.578;2024-01-06T04:29:35;9.90;71.70
31677;DHT22;18385;51.572;6.578;2024-01-06T04:32:01;9.90;71.60
31677;DHT22;18385;51.572;6.578;2024-01-06T04:34:26;9.90;71.70
31677;DHT22;18385;51.572;6.578;2024-01-06T04:36:52;9.90;71.60
31677;DHT22;18385;51.572;6.578;2024-01-06T04:39:18;9.90;71.60
31677;DHT22;18385;51.572;6.578;2024-01-06T04:41:43;9.90;71.60
31677;DHT22;18385;51.572;6.578;2024-01-06T04:44:09;9.80;71.40
31677;DHT22;18385;51.572;6.578;2024-01-06T04:46:35;9.70;71.40
31677;DHT22;18385;51.572;6.578;2024-01-06T04:49:00;9.70;71.60
31677;DHT22;18385;51.572;6.578;2024-01-06T04:51:26;9.60;71.60
31677;DHT22;18385;51.572;6.578;2024-01-06T04:53:52;9.60;71.80
31677;DHT22;18385;51.572;6.578;2024-01-06T04:56:19;9.70;71.80
31677;DHT22;18385;51.572;6.578;2024-01-06T04:58:44;9.70;71.60
31677;DHT22;18385;51.572;6.578;2024-01-06T05:01:10;9.70;71.50
31677;DHT22;18385;51.572;6.578;2024-01-06T05:03:36;9.70;71.50
31677;DHT22;18385;51.572;6.578;2024-01-06T05:06:02;9.60;71.50
31677;DHT22;18385;51.572;6.578;2024-01-06T05:08:27;9.60;71.60
31677;DHT22;18385;51.572;6.578;2024-01-06T05:10:56;9.50;71.60
31677;DHT22;18385;51.572;6.578;2024-01-06T05:13:22;9.50;71.60
31677;DHT22;18385;51.572;6.578;2024-01-06T05:15:47;9.40;71.60
31677;DHT22;18385;51.572;6.578;2024-01-06T05:18:14;9.40;71.70
31677;DHT22;18385;51.572;6.578;2024-01-06T05:20:40;9.30;71.70
31677;DHT22;18385;51.572;6.578;2024-01-06T05:23:08;9.30;71.90
31677;DHT22;18385;51.572;6.578;2024-01-06T05:25:34;9.30;71.90
31677;DHT22;18385;51.572;6.578;2024-01-06T05:28:00;9.40;71.80
31677;DHT22;18385;51.572;6.578;2024-01-06T05:30:25;9.30;71.70
31677;DHT22;18385;51.572;6.578;2024-01-06T05:32:51;9.30;71.80
31677;DHT22;18385;51.572;6.578;2024-01-06T05:35:17;9.40;72.00
31677;DHT22;18385;51.572;6.578;2024-01-06T05:37:42;9.40;71.80
31677;DHT22;18385;51.572;6.578;2024-01-06T05:40:08;9.40;71.80
31677;DHT22;18385;51.572;6.578;2024-01-06T05:42:34;9.40;71.80
31677;DHT22;18385;51.572;6.578;2024-01-06T05:45:00;9.30;71.80
31677;DHT22;18385;51.572;6.578;2024-01-06T05:47:25;9.30;71.70
31677;DHT22;18385;51.572;6.578;2024-01-06T05:49:51;9.30;72.00
31677;DHT22;18385;51.572;6.578;2024-01-06T05:52:17;9.30;71.90
31677;DHT22;18385;51.572;6.578;2024-01-06T05:54:42;9.30;71.90
31677;DHT22;18385;51.572;6.578;2024-01-06T05:57:08;9.30;71.80
31677;DHT22;18385;51.572;6.578;2024-01-06T05:59:34;9.30;71.80
31677;DHT22;18385;51.572;6.578;2024-01-06T06:02:00;9.20;71.70
31677;DHT22;18385;51.572;6.578;2024-01-06T06:04:25;9.20;71.70
31677;DHT22;18385;51.572;6.578;2024-01-06T06:06:51;9.20;71.70
31677;DHT22;18385;51.572;6.578;2024-01-06T06:09:17;9.10;71.80
31677;DHT22;18385;51.572;6.578;2024-01-06T06:11:43;9.10;71.80
31677;DHT22;18385;51.572;6.578;2024-01-06T06:14:09;9.10;71.80
31677;DHT22;18385;51.572;6.578;2024-01-06T06:16:34;9.20;71.90
31677;DHT22;18385;51.572;6.578;2024-01-06T06:19:00;9.10;71.90
31677;DHT22;18385;51.572;6.578;2024-01-06T06:21:26;9.20;71.90
31677;DHT22;18385;51.572;6.578;2024-01-06T06:23:51;9.10;71.70
31677;DHT22;18385;51.572;6.578;2024-01-06T06:26:17;9.20;71.80
31677;DHT22;18385;51.572;6.578;2024-01-06T06:28:43;9.20;71.90
31677;DHT22;18385;51.572;6.578;2024-01-06T06:31:09;9.20;71.60
31677;DHT22;18385;51.572;6.578;2024-01-06T06:33:34;9.10;71.60
31677;DHT22;18385;51.572;6.578;2024-01-06T06:36:00;9.10;71.60
31677;DHT22;18385;51.572;6.578;2024-01-06T06:38:27;9.00;71.50
31677;DHT22;18385;51.572;6.578;2024-01-06T06:40:53;8.90;71.70
31677;DHT22;18385;51.572;6.578;2024-01-06T06:43:18;8.90;71.70
31677;DHT22;18385;51.572;6.578;2024-01-06T06:45:44;8.90;71.80
31677;DHT22;18385;51.572;6.578;2024-01-06T06:48:10;8.90;71.80
31677;DHT22;18385;51.572;6.578;2024-01-06T06:50:35;8.90;71.80
31677;DHT22;18385;51.572;6.578;2024-01-06T06:53:01;8.80;71.70
31677;DHT22;18385;51.572;6.578;2024-01-06T06:55:27;8.80;71.70
31677;DHT22;18385;51.572;6.578;2024-01-06T06:57:53;8.80;71.90
31677;DHT22;18385;51.572;6.578;2024-01-06T07:00:19;8.70;71.70
31677;DHT22;18385;51.572;6.578;2024-01-06T07:02:45;8.70;71.90
31677;DHT22;18385;51.572;6.578;2024-01-06T07:05:11;8.60;72.00
31677;DHT22;18385;51.572;6.578;2024-01-06T07:07:36;8.60;72.10
31677;DHT22;18385;51.572;6.578;2024-01-06T07:10:04;8.60;72.00
31677;DHT22;18385;51.572;6.578;2024-01-06T07:12:31;8.60;72.00
31677;DHT22;18385;51.572;6.578;2024-01-06T07:14:56;8.60;72.20
31677;DHT22;18385;51.572;6.578;2024-01-06T07:17:24;8.50;72.00
31677;DHT22;18385;51.572;6.578;2024-01-06T07:19:50;8.60;72.10
31677;DHT22;18385;51.572;6.578;2024-01-06T07:22:16;8.50;72.00
31677;DHT22;18385;51.572;6.578;2024-01-06T07:24:44;8.60;72.10
31677;DHT22;18385;51.572;6.578;2024-01-06T07:27:11;8.60;72.10
31677;DHT22;18385;51.572;6.578;2024-01-06T07:29:36;8.60;72.10
31677;DHT22;18385;51.572;6.578;2024-01-06T07:32:03;8.70;72.00
31677;DHT22;18385;51.572;6.578;2024-01-06T07:34:29;8.60;71.80
31677;DHT22;18385;51.572;6.578;2024-01-06T07:36:55;8.60;71.90
31677;DHT22;18385;51.572;6.578;2024-01-06T07:39:20;8.60;72.00
31677;DHT22;18385;51.572;6.578;2024-01-06T07:41:46;8.60;71.90
31677;DHT22;18385;51.572;6.578;2024-01-06T07:44:12;8.50;72.00
31677;DHT22;18385;51.572;6.578;2024-01-06T07:46:39;8.60;72.10
31677;DHT22;18385;51.572;6.578;2024-01-06T07:49:06;8.60;72.10
31677;DHT22;18385;51.572;6.578;2024-01-06T07:51:32;8.60;72.40
31677;DHT22;18385;51.572;6.578;2024-01-06T07:53:59;8.60;72.20
31677;DHT22;18385;51.572;6.578;2024-01-06T07:56:25;8.80;72.10
31677;DHT22;18385;51.572;6.578;2024-01-06T07:58:51;8.70;71.90
31677;DHT22;18385;51.572;6.578;2024-01-06T08:01:18;8.60;71.80
31677;DHT22;18385;51.572;6.578;2024-01-06T08:03:43;8.60;71.80
31677;DHT22;18385;51.572;6.578;2024-01-06T08:06:10;8.50;72.00
31677;DHT22;18385;51.572;6.578;2024-01-06T08:08:35;8.40;72.00
31677;DHT22;18385;51.572;6.578;2024-01-06T08:11:01;8.40;72.10
31677;DHT22;18385;51.572;6.578;2024-01-06T08:13:27;8.40;72.40
31677;DHT22;18385;51.572;6.578;2024-01-06T08:15:52;8.50;72.30
31677;DHT22;18385;51.572;6.578;2024-01-06T08:18:18;8.50;72.10
31677;DHT22;18385;51.572;6.578;2024-01-06T08:20:44;8.40;72.00
31677;DHT22;18385;51.572;6.578;2024-01-06T08:23:09;8.40;72.20
31677;DHT22;18385;51.572;6.578;2024-01-06T08:25:36;8.40;72.20
31677;DHT22;18385;51.572;6.578;2024-01-06T08:28:01;8.40;72.20
31677;DHT22;18385;51.572;6.578;2024-01-06T08:30:27;8.40;72.90
31677;DHT22;18385;51.572;6.578;2024-01-06T08:32:53;8.30;71.90
31677;DHT22;18385;51.572;6.578;2024-01-06T08:35:19;8.30;72.10
31677;DHT22;18385;51.572;6.578;2024-01-06T08:37:45;8.30;72.20
31677;DHT22;18385;51.572;6.578;2024-01-06T08:40:11;8.20;72.10
31677;DHT22;18385;51.572;6.578;2024-01-06T08:42:37;8.20;72.00
31677;DHT22;18385;51.572;6.578;2024-01-06T08:45:04;8.10;72.00
31677;DHT22;18385;51.572;6.578;2024-01-06T08:47:30;8.10;72.10
31677;DHT22;18385;51.572;6.578;2024-01-06T08:49:56;8.10;72.20
31677;DHT22;18385;51.572;6.578;2024-01-06T08:52:22;8.10;72.40
31677;DHT22;18385;51.572;6.578;2024-01-06T08:54:48;8.10;72.40
31677;DHT22;18385;51.572;6.578;2024-01-06T08:57:15;8.10;72.30
31677;DHT22;18385;51.572;6.578;2024-01-06T08:59:40;8.10;72.40
31677;DHT22;18385;51.572;6.578;2024-01-06T09:02:06;8.10;72.40
31677;DHT22;18385;51.572;6.578;2024-01-06T09:04:32;8.10;72.60
31677;DHT22;18385;51.572;6.578;2024-01-06T09:06:57;8.10;72.30
31677;DHT22;18385;51.572;6.578;2024-01-06T09:09:23;8.20;72.40
31677;DHT22;18385;51.572;6.578;2024-01-06T09:11:49;8.20;72.20
31677;DHT22;18385;51.572;6.578;2024-01-06T09:14:17;8.20;72.30
31677;DHT22;18385;51.572;6.578;2024-01-06T09:16:43;8.20;72.30
31677;DHT22;18385;51.572;6.578;2024-01-06T09:19:09;8.20;72.20
31677;DHT22;18385;51.572;6.578;2024-01-06T09:21:34;8.10;72.20
31677;DHT22;18385;51.572;6.578;2024-01-06T09:24:01;8.10;72.20
31677;DHT22;18385;51.572;6.578;2024-01-06T09:26:34;8.10;72.30
31677;DHT22;18385;51.572;6.578;2024-01-06T09:29:00;8.10;72.30
31677;DHT22;18385;51.572;6.578;2024-01-06T09:31:27;8.10;72.40
31677;DHT22;18385;51.572;6.578;2024-01-06T09:33:52;8.10;72.30
31677;DHT22;18385;51.572;6.578;2024-01-06T09:36:18;8.10;72.40
31677;DHT22;18385;51.572;6.578;2024-01-06T09:38:44;8.20;72.30
31677;DHT22;18385;51.572;6.578;2024-01-06T09:41:09;8.10;72.20
31677;DHT22;18385;51.572;6.578;2024-01-06T09:43:35;8.10;72.20
31677;DHT22;18385;51.572;6.578;2024-01-06T09:46:25;8.10;72.30
31677;DHT22;18385;51.572;6.578;2024-01-06T09:49:01;8.10;72.20
31677;DHT22;18385;51.572;6.578;2024-01-06T09:51:27;8.00;72.80
31677;DHT22;18385;51.572;6.578;2024-01-06T09:53:59;8.00;72.40
31677;DHT22;18385;51.572;6.578;2024-01-06T09:56:26;8.00;72.40
31677;DHT22;18385;51.572;6.578;2024-01-06T09:58:53;8.00;72.30
31677;DHT22;18385;51.572;6.578;2024-01-06T10:01:19;8.00;72.20
31677;DHT22;18385;51.572;6.578;2024-01-06T10:03:45;7.90;72.30
31677;DHT22;18385;51.572;6.578;2024-01-06T10:06:11;7.90;72.50
31677;DHT22;18385;51.572;6.578;2024-01-06T10:08:38;7.90;72.50
31677;DHT22;18385;51.572;6.578;2024-01-06T10:11:06;8.00;72.50
31677;DHT22;18385;51.572;6.578;2024-01-06T10:13:33;8.00;72.40
31677;DHT22;18385;51.572;6.578;2024-01-06T10:15:59;8.00;72.20
31677;DHT22;18385;51.572;6.578;2024-01-06T10:18:25;8.00;72.10
31677;DHT22;18385;51.572;6.578;2024-01-06T10:20:52;8.00;72.30
31677;DHT22;18385;51.572;6.578;2024-01-06T10:23:19;8.00;72.40
31677;DHT22;18385;51.572;6.578;2024-01-06T10:25:44;8.00;72.30
31677;DHT22;18385;51.572;6.578;2024-01-06T10:28:13;8.00;72.30
31677;DHT22;18385;51.572;6.578;2024-01-06T10:30:41;8.00;72.20
31677;DHT22;18385;51.572;6.578;2024-01-06T10:33:09;7.90;72.20
31677;DHT22;18385;51.572;6.578;2024-01-06T10:35:36;7.90;72.30
31677;DHT22;18385;51.572;6.578;2024-01-06T10:38:03;7.90;72.30
31677;DHT22;18385;51.572;6.578;2024-01-06T10:40:29;7.90;72.30
31677;DHT22;18385;51.572;6.578;2024-01-06T10:42:55;7.90;72.60
31677;DHT22;18385;51.572;6.578;2024-01-06T10:45:23;8.00;73.30
31677;DHT22;18385;51.572;6.578;2024-01-06T10:47:49;8.00;72.30
31677;DHT22;18385;51.572;6.578;2024-01-06T10:50:17;8.00;72.30
31677;DHT22;18385;51.572;6.578;2024-01-06T10:52:43;8.00;72.40
31677;DHT22;18385;51.572;6.578;2024-01-06T10:55:09;7.90;72.20
31677;DHT22;18385;51.572;6.578;2024-01-06T10:57:37;7.90;72.30
31677;DHT22;18385;51.572;6.578;2024-01-06T11:00:04;7.90;72.30
31677;DHT22;18385;51.572;6.578;2024-01-06T11:02:31;7.90;72.40
31677;DHT22;18385;51.572;6.578;2024-01-06T11:04:58;7.90;72.30
31677;DHT22;18385;51.572;6.578;2024-01-06T11:07:25;7.90;72.20
31677;DHT22;18385;51.572;6.578;2024-01-06T11:09:57;8.00;72.50
31677;DHT22;18385;51.572;6.578;2024-01-06T11:12:28;8.10;72.50
31677;DHT22;18385;51.572;6.578;2024-01-06T11:14:54;8.00;72.10
31677;DHT22;18385;51.572;6.578;2024-01-06T11:17:52;8.10;72.40
31677;DHT22;18385;51.572;6.578;2024-01-06T11:20:24;8.10;72.10
31677;DHT22;18385;51.572;6.578;2024-01-06T11:22:50;7.90;72.10
31677;DHT22;18385;51.572;6.578;2024-01-06T11:25:18;7.90;72.30
31677;DHT22;18385;51.572;6.578;2024-01-06T11:27:46;7.90;72.30
31677;DHT22;18385;51.572;6.578;2024-01-06T11:30:23;7.90;72.30
31677;DHT22;18385;51.572;6.578;2024-01-06T11:32:51;7.90;72.40
31677;DHT22;18385;51.572;6.578;2024-01-06T11:35:19;7.80;72.20
31677;DHT22;18385;51.572;6.578;2024-01-06T11:43:00;7.80;72.40
31677;DHT22;18385;51.572;6.578;2024-01-06T11:45:28;7.80;72.40
31677;DHT22;18385;51.572;6.578;2024-01-06T11:47:59;7.80;72.40
31677;DHT22;18385;51.572;6.578;2024-01-06T11:50:26;7.80;72.40
31677;DHT22;18385;51.572;6.578;2024-01-06T11:52:53;7.70;72.20
31677;DHT22;18385;51.572;6.578;2024-01-06T11:55:19;7.70;72.80
31677;DHT22;18385;51.572;6.578;2024-01-06T11:57:45;7.70;72.40
31677;DHT22;18385;51.572;6.578;2024-01-06T12:00:11;7.70;72.40
31677;DHT22;18385;51.572;6.578;2024-01-06T12:02:40;7.70;72.40
31677;DHT22;18385;51.572;6.578;2024-01-06T12:05:06;7.60;72.30
31677;DHT22;18385;51.572;6.578;2024-01-06T12:07:37;7.60;72.40
31677;DHT22;18385;51.572;6.578;2024-01-06T12:10:03;7.70;72.60
31677;DHT22;18385;51.572;6.578;2024-01-06T12:12:29;7.70;72.30
31677;DHT22;18385;51.572;6.578;2024-01-06T12:14:55;7.70;72.40
31677;DHT22;18385;51.572;6.578;2024-01-06T12:17:21;7.60;72.20
31677;DHT22;18385;51.572;6.578;2024-01-06T12:19:47;7.70;72.40
31677;DHT22;18385;51.572;6.578;2024-01-06T12:22:15;7.70;72.50
31677;DHT22;18385;51.572;6.578;2024-01-06T12:24:41;7.70;72.30
31677;DHT22;18385;51.572;6.578;2024-01-06T12:27:11;7.70;72.20
31677;DHT22;18385;51.572;6.578;2024-01-06T12:29:41;7.60;72.10
31677;DHT22;18385;51.572;6.578;2024-01-06T12:32:07;7.60;72.30
31677;DHT22;18385;51.572;6.578;2024-01-06T12:34:35;7.50;71.90
31677;DHT22;18385;51.572;6.578;2024-01-06T12:37:01;7.40;72.10
31677;DHT22;18385;51.572;6.578;2024-01-06T12:39:28;7.30;72.40
31677;DHT22;18385;51.572;6.578;2024-01-06T12:41:55;7.30;72.50
31677;DHT22;18385;51.572;6.578;2024-01-06T12:44:21;7.30;72.40
31677;DHT22;18385;51.572;6.578;2024-01-06T12:46:47;7.40;72.50
31677;DHT22;18385;51.572;6.578;2024-01-06T12:49:13;7.30;72.30
31677;DHT22;18385;51.572;6.578;2024-01-06T12:51:39;7.30;72.50
31677;DHT22;18385;51.572;6.578;2024-01-06T12:54:04;7.30;72.40
31677;DHT22;18385;51.572;6.578;2024-01-06T12:56:30;7.30;72.40
31677;DHT22;18385;51.572;6.578;2024-01-06T12:58:56;7.30;72.50
31677;DHT22;18385;51.572;6.578;2024-01-06T13:01:22;7.30;72.30
31677;DHT22;18385;51.572;6.578;2024-01-06T13:03:48;7.30;72.20
31677;DHT22;18385;51.572;6.578;2024-01-06T13:06:13;7.20;72.10
31677;DHT22;18385;51.572;6.578;2024-01-06T13:08:40;7.20;72.30
31677;DHT22;18385;51.572;6.578;2024-01-06T13:11:05;7.20;72.30
31677;DHT22;18385;51.572;6.578;2024-01-06T13:13:32;7.20;72.30
31677;DHT22;18385;51.572;6.578;2024-01-06T13:15:57;7.20;72.40
31677;DHT22;18385;51.572;6.578;2024-01-06T13:18:23;7.10;72.30
31677;DHT22;18385;51.572;6.578;2024-01-06T13:20:49;7.10;72.30
31677;DHT22;18385;51.572;6.578;2024-01-06T13:23:15;7.00;72.30
31677;DHT22;18385;51.572;6.578;2024-01-06T13:25:41;6.90;72.50
31677;DHT22;18385;51.572;6.578;2024-01-06T13:28:07;6.90;72.60
31677;DHT22;18385;51.572;6.578;2024-01-06T13:30:33;6.90;72.70
31677;DHT22;18385;51.572;6.578;2024-01-06T13:32:59;6.90;72.60
31677;DHT22;18385;51.572;6.578;2024-01-06T13:35:26;6.90;72.60
31677;DHT22;18385;51.572;6.578;2024-01-06T13:37:52;6.90;72.70
31677;DHT22;18385;51.572;6.578;2024-01-06T13:40:19;6.90;72.80
31677;DHT22;18385;51.572;6.578;2024-01-06T13:42:51;6.90;72.70
31677;DHT22;18385;51.572;6.578;2024-01-06T13:45:18;6.90;72.60
31677;DHT22;18385;51.572;6.578;2024-01-06T13:47:44;6.90;72.60
31677;DHT22;18385;51.572;6.578;2024-01-06T13:50:15;6.90;72.60
31677;DHT22;18385;51.572;6.578;2024-01-06T13:52:41;6.90;72.60
31677;DHT22;18385;51.572;6.578;2024-01-06T13:55:07;6.90;72.70
31677;DHT22;18385;51.572;6.578;2024-01-06T13:57:34;6.90;72.60
31677;DHT22;18385;51.572;6.578;2024-01-06T14:00:00;7.00;72.60
31677;DHT22;18385;51.572;6.578;2024-01-06T14:02:25;7.00;72.50
31677;DHT22;18385;51.572;6.578;2024-01-06T14:04:51;7.00;72.60
31677;DHT22;18385;51.572;6.578;2024-01-06T14:07:18;7.00;72.60
31677;DHT22;18385;51.572;6.578;2024-01-06T14:09:48;7.00;72.60
31677;DHT22;18385;51.572;6.578;2024-01-06T14:12:14;7.00;72.40
31677;DHT22;18385;51.572;6.578;2024-01-06T14:14:40;7.00;72.40
31677;DHT22;18385;51.572;6.578;2024-01-06T14:17:07;7.00;72.60
31677;DHT22;18385;51.572;6.578;2024-01-06T14:19:33;7.00;72.60
31677;DHT22;18385;51.572;6.578;2024-01-06T14:21:59;7.00;72.50
31677;DHT22;18385;51.572;6.578;2024-01-06T14:24:25;7.00;72.50
31677;DHT22;18385;51.572;6.578;2024-01-06T14:26:51;7.10;72.50
31677;DHT22;18385;51.572;6.578;2024-01-06T14:29:19;7.10;72.50
31677;DHT22;18385;51.572;6.578;2024-01-06T14:31:48;7.10;72.40
31677;DHT22;18385;51.572;6.578;2024-01-06T14:34:14;7.10;72.40
31677;DHT22;18385;51.572;6.578;2024-01-06T14:36:39;7.10;72.40
31677;DHT22;18385;51.572;6.578;2024-01-06T14:39:14;7.10;72.30
31677;DHT22;18385;51.572;6.578;2024-01-06T14:41:40;7.00;72.20
31677;DHT22;18385;51.572;6.578;2024-01-06T14:44:06;7.00;72.40
31677;DHT22;18385;51.572;6.578;2024-01-06T14:46:32;7.00;72.40
31677;DHT22;18385;51.572;6.578;2024-01-06T14:48:59;7.00;72.30
31677;DHT22;18385;51.572;6.578;2024-01-06T14:51:25;7.00;72.30
31677;DHT22;18385;51.572;6.578;2024-01-06T14:53:50;7.00;72.10
31677;DHT22;18385;51.572;6.578;2024-01-06T14:56:16;7.00;72.30
31677;DHT22;18385;51.572;6.578;2024-01-06T14:58:42;6.90;72.20
31677;DHT22;18385;51.572;6.578;2024-01-06T15:01:08;6.90;72.30
31677;DHT22;18385;51.572;6.578;2024-01-06T15:03:33;6.90;72.30
31677;DHT22;18385;51.572;6.578;2024-01-06T15:05:59;6.90;72.40
31677;DHT22;18385;51.572;6.578;2024-01-06T15:08:24;6.90;72.40
31677;DHT22;18385;51.572;6.578;2024-01-06T15:10:51;7.00;72.30
31677;DHT22;18385;51.572;6.578;2024-01-06T15:13:17;6.90;72.10
31677;DHT22;18385;51.572;6.578;2024-01-06T15:15:43;6.90;72.20
31677;DHT22;18385;51.572;6.578;2024-01-06T15:18:08;6.80;72.10
31677;DHT22;18385;51.572;6.578;2024-01-06T15:20:35;6.80;72.10
31677;DHT22;18385;51.572;6.578;2024-01-06T15:23:01;6.80;72.20
31677;DHT22;18385;51.572;6.578;2024-01-06T15:25:26;6.70;72.20
31677;DHT22;18385;51.572;6.578;2024-01-06T15:27:53;6.70;72.50
31677;DHT22;18385;51.572;6.578;2024-01-06T15:30:18;6.70;72.20
31677;DHT22;18385;51.572;6.578;2024-01-06T15:32:44;6.60;72.20
31677;DHT22;18385;51.572;6.578;2024-01-06T15:35:10;6.50;72.40
31677;DHT22;18385;51.572;6.578;2024-01-06T15:37:35;6.50;72.60
31677;DHT22;18385;51.572;6.578;2024-01-06T15:40:02;6.60;72.50
31677;DHT22;18385;51.572;6.578;2024-01-06T15:42:28;6.60;72.50